Terminal Aerodrome Forecast
Issued by NWS Atlanta, GA

Home | Current Version | Previous Version | Text Only | Print | Product List | Glossary On
Versions: 1 2 3 4 5 6 7 8 9 10 11 12 13
000
FTUS42 KFFC 232322
TAFMCN
TAF
KMCN 232322Z 2400/2424 30007KT P6SM VCSH BKN015
      TEMPO 2400/2402 2SM +SHRA BKN008
     FM240200 27007KT P6SM BKN012
     FM241000 30005KT 6SM -DZ BR BKN009
     FM241500 30008KT P6SM BKN015
     FM241800 29007KT P6SM BKN035=

USA.gov is the U.S. government's official web portal to all federal, state and local government web resources and services.